CheckWX is a tool to help pilots better visualize weather data.  It is not intended as a substitute for an official pre-flight weather briefing.

10:43:39 UTC

SBIZ TAF
Prefeito Renato Moreira Airport
Imperatriz, Brazil
TAF SBIZ 260200Z 2606/2618 00000KT CAVOK TN21/2609Z TX34/2618Z BECMG 2609/2611 22005KT BECMG 2612/2614 09010KT RMK PGZ

Jun-26@
06:00 UTC

Jun-26 @ 06:00 UTC

Jun-26@
09:00 UTC

Jun-26 @ 09:00 UTC

TAF SBIZ 260200Z 2606/2618 00000KT CAVOK TN21/2609Z TX34/2618Z

Expired

Cloud Levels
  • No significant clouds

Jun-26@
09:00 UTC

Jun-26 @ 09:00 UTC

Jun-26@
12:00 UTC

Jun-26 @ 12:00 UTC

BECMG 2609/2611 22005KT

Becoming

Becoming Conditions expected by Wed, Jun 26, 2019 @ 11:00 UTC

Wind
  • 220° at 5 KTS
Cloud Levels
  • No significant clouds

Jun-26@
12:00 UTC

Jun-26 @ 12:00 UTC

Jun-26@
18:00 UTC

Jun-26 @ 18:00 UTC

BECMG 2612/2614 09010KT RMK PGZ

Becoming

Becoming Conditions expected by Wed, Jun 26, 2019 @ 14:00 UTC

Wind
  • 090° at 10 KTS
Cloud Levels
  • No significant clouds